Time;durP1;ratioP1;P1;durP2;ratioP2;P2;SDS_P1;SDS_P2;PMS_P1;PMS_P2;Temp;Humidity;BMP_temperature;BMP_pressure;BME280_temperature;BME280_humidity;BME280_pressure;Samples;Min_cycle;Max_cycle;Signal;HPM_P1;HPM_P2
2022/05/11 03:02:21;;;;;;;36.70;33.80;;;12.60;99.90;;;;;;5053502;23;20233;-76
2022/05/11 03:04:51;;;;;;;41.27;38.73;;;12.60;99.90;;;;;;4952751;28;20687;-76
2022/05/11 03:07:17;;;;;;;55.97;52.50;;;12.60;99.90;;;;;;4953072;28;20684;-76
2022/05/11 03:09:42;;;;;;;50.57;47.30;;;12.50;99.90;;;;;;4951969;28;20184;-77
2022/05/11 03:12:10;;;;;;;40.70;38.07;;;12.50;99.90;;;;;;4937255;29;20198;-76
2022/05/11 03:14:35;;;;;;;29.47;27.47;;;12.50;99.90;;;;;;4933250;29;20182;-77
2022/05/11 03:17:04;;;;;;;40.43;37.83;;;12.40;99.90;;;;;;5004606;23;20236;-80
2022/05/11 03:19:30;;;;;;;47.50;44.33;;;12.30;99.90;;;;;;4995273;28;20172;-80
2022/05/11 03:21:57;;;;;;;50.37;47.03;;;12.30;99.90;;;;;;4995328;28;20192;-80
2022/05/11 03:24:23;;;;;;;45.67;42.73;;;12.30;99.90;;;;;;4996171;28;20188;-77
2022/05/11 03:26:49;;;;;;;33.80;31.43;;;12.30;99.90;;;;;;4981986;28;20213;-81
2022/05/11 03:29:16;;;;;;;22.53;20.37;;;12.30;99.90;;;;;;4978584;28;20239;-81
2022/05/11 03:34:36;;;;;;;21.40;19.40;;;12.20;99.90;;;;;;4980653;28;20276;-78
2022/05/11 03:34:36;;;;;;;21.10;19.50;;;12.20;99.90;;;;;;4977858;28;20208;-69
2022/05/11 03:37:04;;;;;;;20.67;18.67;;;12.20;99.90;;;;;;4971703;28;20204;-72
2022/05/11 03:39:30;;;;;;;20.07;18.33;;;12.10;99.90;;;;;;4969510;28;20201;-72
2022/05/11 03:41:55;;;;;;;21.13;18.97;;;12.10;99.90;;;;;;4971447;28;20227;-72
2022/05/11 03:44:21;;;;;;;20.40;18.50;;;12.10;99.90;;;;;;4972160;28;20177;-72
2022/05/11 03:46:47;;;;;;;20.13;18.07;;;12.10;99.90;;;;;;4973544;28;20642;-71
2022/05/11 03:49:14;;;;;;;21.07;19.43;;;12.10;99.90;;;;;;4972588;28;20208;-71
2022/05/11 03:51:40;;;;;;;19.90;18.10;;;12.10;99.90;;;;;;4971909;28;20626;-71
2022/05/11 03:54:06;;;;;;;21.77;19.53;;;12.10;99.90;;;;;;4966474;28;20814;-72
2022/05/11 03:56:33;;;;;;;20.70;18.97;;;12.10;99.90;;;;;;4970543;28;20204;-72
2022/05/11 03:58:58;;;;;;;16.50;14.60;;;12.10;99.90;;;;;;4971330;28;20185;-72
2022/05/11 04:01:24;;;;;;;16.83;15.33;;;12.10;99.90;;;;;;4971958;28;20251;-72
2022/05/11 04:03:50;;;;;;;19.33;17.43;;;12.10;99.90;;;;;;4972050;28;20184;-72
2022/05/11 04:06:17;;;;;;;20.27;18.23;;;12.10;99.90;;;;;;4972385;28;20209;-72
2022/05/11 04:08:43;;;;;;;23.70;21.63;;;12.10;99.90;;;;;;4971297;28;20665;-74
2022/05/11 04:11:11;;;;;;;17.63;14.70;;;12.10;99.90;;;;;;4971011;28;20202;-71
2022/05/11 04:13:36;;;;;;;17.23;15.03;;;12.20;99.90;;;;;;4972063;28;20200;-71
2022/05/11 04:16:03;;;;;;;18.03;16.43;;;12.20;99.90;;;;;;4975370;28;20217;-72
2022/05/11 04:18:29;;;;;;;40.40;37.50;;;12.30;99.90;;;;;;4975987;28;20181;-68
2022/05/11 04:20:55;;;;;;;42.93;40.07;;;12.30;99.90;;;;;;4975675;28;20561;-68
2022/05/11 04:23:20;;;;;;;22.97;19.37;;;12.30;99.90;;;;;;4975758;28;20675;-70
2022/05/11 04:25:46;;;;;;;49.80;46.40;;;12.40;99.90;;;;;;4974416;28;20632;-69
2022/05/11 04:28:13;;;;;;;39.40;36.60;;;12.40;99.90;;;;;;4975429;28;20216;-70
2022/05/11 04:30:39;;;;;;;39.17;36.53;;;12.50;99.90;;;;;;4973743;28;20185;-69
2022/05/11 04:33:07;;;;;;;51.73;48.27;;;12.60;99.90;;;;;;4975584;28;20299;-69
2022/05/11 04:35:34;;;;;;;70.13;65.67;;;12.70;99.90;;;;;;4975434;28;20263;-70
2022/05/11 04:38:06;;;;;;;28.40;26.30;;;12.70;99.90;;;;;;4974847;28;20173;-70
2022/05/11 04:40:32;;;;;;;38.93;36.17;;;12.70;99.90;;;;;;4975464;28;20188;-70
2022/05/11 04:42:58;;;;;;;49.53;46.23;;;12.70;99.90;;;;;;4975144;28;20199;-70
2022/05/11 04:45:23;;;;;;;28.00;25.80;;;12.80;99.90;;;;;;4974157;28;20603;-70
2022/05/11 04:47:49;;;;;;;50.30;47.03;;;12.80;99.90;;;;;;4974681;28;20523;-70
2022/05/11 04:50:16;;;;;;;32.87;30.37;;;12.80;99.90;;;;;;4974058;28;20228;-71
2022/05/11 04:52:43;;;;;;;55.77;52.20;;;12.90;99.90;;;;;;4974437;28;20208;-70
2022/05/11 04:55:10;;;;;;;25.10;22.93;;;13.00;99.90;;;;;;4974683;28;20189;-71
2022/05/11 04:57:36;;;;;;;17.80;16.17;;;13.10;99.90;;;;;;4973647;28;20177;-70
2022/05/11 05:00:09;;;;;;;24.10;21.73;;;13.30;99.90;;;;;;4974828;28;20213;-71
2022/05/11 05:02:35;;;;;;;62.10;58.20;;;13.40;99.90;;;;;;4974766;28;20211;-71
2022/05/11 05:05:03;;;;;;;82.33;76.60;;;13.60;99.90;;;;;;4973562;28;20189;-68
2022/05/11 05:07:29;;;;;;;60.20;56.10;;;13.90;99.90;;;;;;4973638;28;20810;-69
2022/05/11 05:09:55;;;;;;;34.07;31.23;;;14.10;99.90;;;;;;4971432;28;20220;-69
2022/05/11 05:12:20;;;;;;;48.60;45.07;;;14.30;99.90;;;;;;4972594;28;20272;-69
2022/05/11 05:14:46;;;;;;;36.03;33.13;;;14.50;99.90;;;;;;4974612;28;20181;-69
2022/05/11 05:17:13;;;;;;;34.27;31.67;;;14.80;99.90;;;;;;4974283;28;20221;-69
2022/05/11 05:19:44;;;;;;;39.13;36.27;;;14.90;99.90;;;;;;4974567;28;20185;-69
2022/05/11 05:22:10;;;;;;;27.23;24.67;;;15.00;99.90;;;;;;4973752;28;20184;-69
2022/05/11 05:24:36;;;;;;;20.67;18.57;;;15.10;99.90;;;;;;4973796;28;20178;-69
2022/05/11 05:27:02;;;;;;;26.23;24.33;;;15.10;99.90;;;;;;4973362;28;20296;-68
2022/05/11 05:32:14;;;;;;;21.17;19.33;;;15.60;99.90;;;;;;4974570;28;20645;-69
2022/05/11 05:34:43;;;;;;;30.40;27.90;;;16.00;99.90;;;;;;4973472;28;20231;-69
2022/05/11 05:37:10;;;;;;;36.93;34.37;;;16.40;99.90;;;;;;4974193;28;20208;-70
2022/05/11 05:39:36;;;;;;;16.47;15.10;;;16.70;99.90;;;;;;4974796;28;20268;-70
2022/05/11 05:42:04;;;;;;;14.60;13.40;;;17.20;99.90;;;;;;4974707;28;20233;-70
2022/05/11 05:44:32;;;;;;;18.33;16.73;;;17.40;99.90;;;;;;4975031;28;20633;-70
2022/05/11 05:47:08;;;;;;;19.10;17.47;;;17.70;99.90;;;;;;4972998;28;20217;-70
2022/05/11 05:49:35;;;;;;;16.57;14.00;;;17.60;99.90;;;;;;4973171;28;20227;-70
2022/05/11 05:52:02;;;;;;;15.77;14.37;;;17.90;99.90;;;;;;4974241;28;20187;-70
2022/05/11 05:54:32;;;;;;;19.53;17.93;;;18.30;99.90;;;;;;4974355;28;20216;-70
2022/05/11 05:56:58;;;;;;;36.47;33.87;;;18.60;99.90;;;;;;4973702;28;20208;-70
2022/05/11 05:59:24;;;;;;;25.30;22.90;;;18.80;99.90;;;;;;4974182;28;20205;-71
2022/05/11 06:01:50;;;;;;;31.10;28.80;;;19.00;99.90;;;;;;4973999;28;20177;-70
2022/05/11 06:04:17;;;;;;;46.93;43.93;;;19.40;99.90;;;;;;4974095;28;20185;-70
2022/05/11 06:06:42;;;;;;;49.60;46.60;;;19.70;99.90;;;;;;4973845;28;20295;-70
2022/05/11 06:09:09;;;;;;;42.25;39.40;;;19.80;99.90;;;;;;4973703;28;20271;-70
2022/05/11 06:11:36;;;;;;;29.10;26.87;;;19.70;99.90;;;;;;4973942;28;20188;-70
2022/05/11 06:14:03;;;;;;;19.10;17.50;;;20.10;99.90;;;;;;4972607;28;20204;-69
2022/05/11 06:16:29;;;;;;;15.07;13.68;;;20.50;99.90;;;;;;4973611;28;20271;-69
2022/05/11 06:18:55;;;;;;;12.93;11.73;;;20.90;99.90;;;;;;4973540;28;20185;-70
2022/05/11 06:21:20;;;;;;;18.35;16.92;;;21.10;99.90;;;;;;4972725;28;20543;-70
2022/05/11 06:23:47;;;;;;;15.98;14.70;;;21.80;99.90;;;;;;4962312;28;20208;-70
2022/05/11 06:26:13;;;;;;;36.63;33.92;;;22.30;99.90;;;;;;4955031;28;20205;-70
2022/05/11 06:28:40;;;;;;;37.00;34.67;;;22.80;99.90;;;;;;4956708;28;20177;-70
2022/05/11 06:31:08;;;;;;;26.58;24.95;;;23.30;99.90;;;;;;4973119;28;20193;-70
2022/05/11 06:33:33;;;;;;;12.25;11.02;;;23.80;99.90;;;;;;4973630;28;20220;-70
2022/05/11 06:36:04;;;;;;;11.57;10.77;;;24.30;99.90;;;;;;4973457;28;20201;-70
2022/05/11 06:38:30;;;;;;;15.20;13.85;;;24.70;99.90;;;;;;4972590;28;20181;-70
2022/05/11 06:40:56;;;;;;;14.65;13.55;;;25.20;99.90;;;;;;4973224;28;20656;-70
2022/05/11 06:43:22;;;;;;;19.15;17.63;;;25.30;99.90;;;;;;4972989;28;20205;-70
2022/05/11 06:45:47;;;;;;;21.27;20.00;;;25.70;99.90;;;;;;4972867;28;20211;-70
2022/05/11 06:48:14;;;;;;;13.55;12.48;;;25.80;99.90;;;;;;4973430;28;20185;-70
2022/05/11 06:50:42;;;;;;;8.52;7.90;;;26.20;99.70;;;;;;4973629;28;20182;-70
2022/05/11 06:53:12;;;;;;;11.10;10.35;;;26.30;98.90;;;;;;4972964;28;20281;-70
2022/05/11 07:01:10;;;;;;;20.42;19.05;;;27.20;92.90;;;;;;4972961;28;20647;-70
2022/05/11 07:03:35;;;;;;;16.48;15.35;;;26.90;94.60;;;;;;4972821;28;20185;-70
2022/05/11 07:06:03;;;;;;;12.57;11.65;;;26.70;94.30;;;;;;4972788;28;20259;-70
2022/05/11 07:08:41;;;;;;;11.43;10.52;;;26.70;93.80;;;;;;4970787;28;20197;-70
2022/05/11 07:13:55;;;;;;;11.32;10.60;;;27.00;93.20;;;;;;4957090;28;20245;-76
2022/05/11 07:16:21;;;;;;;10.32;9.57;;;27.40;92.80;;;;;;4952605;28;20304;-69
2022/05/11 07:18:48;;;;;;;7.90;7.15;;;27.60;90.60;;;;;;4950347;29;20704;-71
2022/05/11 07:21:14;;;;;;;7.10;6.60;;;27.50;90.10;;;;;;4953270;29;20196;-70
2022/05/11 07:23:39;;;;;;;8.48;7.85;;;27.80;87.80;;;;;;4953395;29;20188;-70
2022/05/11 07:26:06;;;;;;;10.65;9.93;;;28.10;87.20;;;;;;4952179;28;20603;-70
2022/05/11 07:28:32;;;;;;;9.35;8.75;;;28.30;86.90;;;;;;4953113;28;20189;-70
2022/05/11 07:30:58;;;;;;;10.35;9.73;;;28.50;83.20;;;;;;4953293;28;20185;-70
2022/05/11 07:33:24;;;;;;;11.02;10.13;;;28.60;83.40;;;;;;4953184;28;20677;-70
2022/05/11 07:35:50;;;;;;;7.85;6.97;;;28.40;83.10;;;;;;4953216;28;20202;-70
2022/05/11 07:38:18;;;;;;;7.68;5.75;;;28.50;82.70;;;;;;4952844;29;20208;-70
2022/05/11 07:40:45;;;;;;;8.40;7.90;;;28.40;79.30;;;;;;4951972;29;20205;-70
2022/05/11 07:43:11;;;;;;;10.27;9.77;;;28.00;81.00;;;;;;4953167;29;20193;-70
2022/05/11 07:45:39;;;;;;;11.98;10.98;;;27.70;80.70;;;;;;4952880;28;20213;-70
2022/05/11 07:48:06;;;;;;;12.13;11.43;;;27.70;80.60;;;;;;4952388;28;20235;-70
2022/05/11 07:50:32;;;;;;;10.85;10.25;;;27.70;80.90;;;;;;4952545;28;20563;-70
2022/05/11 07:52:58;;;;;;;9.95;9.32;;;27.80;78.60;;;;;;4951897;28;20267;-70
2022/05/11 07:55:25;;;;;;;10.63;10.05;;;27.80;77.80;;;;;;4951902;28;20287;-70
2022/05/11 08:00:37;;;;;;;7.55;7.03;;;28.20;77.20;;;;;;4953099;29;20185;-70
2022/05/11 08:03:06;;;;;;;5.95;5.65;;;28.20;77.40;;;;;;4951582;28;20189;-70
2022/05/11 08:05:32;;;;;;;5.57;5.13;;;28.50;77.90;;;;;;4951940;28;20209;-70
2022/05/11 08:08:02;;;;;;;5.32;4.93;;;29.00;74.90;;;;;;4951877;28;20237;-70
2022/05/11 08:10:31;;;;;;;7.07;6.47;;;29.30;73.10;;;;;;4953382;28;20194;-70
2022/05/11 08:12:57;;;;;;;7.47;6.78;;;29.20;72.30;;;;;;4952835;29;20205;-70
2022/05/11 08:15:24;;;;;;;6.95;6.55;;;29.00;72.90;;;;;;4952949;28;20209;-70
2022/05/11 08:17:51;;;;;;;8.63;8.00;;;28.80;73.00;;;;;;4951507;28;20264;-70
2022/05/11 08:20:29;;;;;;;8.07;7.47;;;28.70;72.80;;;;;;4952893;28;20186;-70
2022/05/11 08:22:56;;;;;;;7.47;6.88;;;28.80;73.20;;;;;;4951684;29;20196;-70
2022/05/11 08:25:25;;;;;;;7.90;7.30;;;28.60;70.40;;;;;;4951800;28;20205;-70
2022/05/11 08:27:54;;;;;;;7.68;7.13;;;28.80;71.90;;;;;;4952250;29;20182;-70
2022/05/11 08:33:22;;;;;;;7.07;6.68;;;29.00;69.80;;;;;;4952829;28;20291;-75
2022/05/11 08:36:04;;;;;;;6.93;6.25;;;29.00;71.30;;;;;;4955557;28;20602;-74
2022/05/11 08:38:36;;;;;;;7.45;6.95;;;29.00;70.60;;;;;;4950897;29;20241;-74
2022/05/11 08:41:14;;;;;;;8.10;7.40;;;29.10;70.30;;;;;;4969714;28;20177;-75
2022/05/11 08:43:42;;;;;;;6.82;6.43;;;29.20;71.90;;;;;;4971817;28;20200;-75
2022/05/11 08:46:39;;;;;;;6.00;5.45;;;29.40;68.00;;;;;;4971881;28;20209;-79
2022/05/11 08:49:26;;;;;;;5.93;5.63;;;29.40;66.80;;;;;;4971589;28;20188;-77
2022/05/11 08:52:00;;;;;;;6.45;5.95;;;29.40;67.70;;;;;;4960129;28;20196;-77
2022/05/11 08:54:25;;;;;;;6.05;5.65;;;29.40;67.50;;;;;;4971686;28;20582;-77
2022/05/11 08:56:55;;;;;;;6.50;5.70;;;29.60;69.00;;;;;;4970946;28;20212;-76
2022/05/11 08:59:31;;;;;;;8.70;5.53;;;29.90;64.80;;;;;;4971596;28;20272;-77
2022/05/11 09:02:06;;;;;;;7.00;6.35;;;29.80;65.50;;;;;;4973883;28;20543;-77
2022/05/11 09:04:46;;;;;;;5.65;5.32;;;29.80;65.40;;;;;;4973879;28;20283;-77
2022/05/11 09:07:12;;;;;;;6.47;6.03;;;29.70;66.00;;;;;;4975083;28;20258;-77
2022/05/11 09:09:39;;;;;;;8.32;6.22;;;29.80;65.10;;;;;;4975727;28;20275;-76
2022/05/11 09:12:06;;;;;;;7.93;7.10;;;29.80;64.80;;;;;;4973756;28;20185;-77
2022/05/11 09:14:42;;;;;;;5.82;5.53;;;29.80;64.60;;;;;;4974108;28;20235;-76
2022/05/11 09:17:26;;;;;;;6.15;5.85;;;29.90;63.60;;;;;;4996390;23;20241;-78
2022/05/11 09:20:01;;;;;;;6.68;6.28;;;30.00;62.20;;;;;;4974462;28;20557;-78
2022/05/11 09:22:28;;;;;;;7.30;6.75;;;30.30;62.70;;;;;;4974911;28;20184;-78
2022/05/11 09:25:00;;;;;;;8.15;7.63;;;30.60;64.20;;;;;;4976731;28;20645;-77
2022/05/11 09:27:32;;;;;;;11.15;10.20;;;30.40;62.90;;;;;;4975630;28;20211;-77
2022/05/11 09:30:06;;;;;;;14.18;13.32;;;30.30;62.10;;;;;;4974096;28;20285;-78
2022/05/11 09:32:42;;;;;;;17.60;16.67;;;30.10;60.90;;;;;;4975125;28;20187;-79
2022/05/11 09:35:14;;;;;;;12.32;11.68;;;30.60;60.10;;;;;;4975225;28;20177;-78
2022/05/11 09:37:42;;;;;;;14.20;13.15;;;30.90;60.00;;;;;;4976741;28;20209;-77
2022/05/11 09:40:26;;;;;;;13.52;12.73;;;30.90;59.40;;;;;;4986073;28;20177;-78
2022/05/11 09:42:56;;;;;;;10.95;10.38;;;31.30;58.10;;;;;;4988843;28;20199;-79
2022/05/11 09:45:47;;;;;;;7.30;6.57;;;31.10;59.10;;;;;;4987611;28;20189;-78
2022/05/11 09:48:16;;;;;;;7.85;7.38;;;31.20;57.80;;;;;;4972439;28;20207;-78
2022/05/11 09:50:43;;;;;;;7.35;6.75;;;30.60;57.90;;;;;;4985537;28;20215;-78
2022/05/11 09:53:36;;;;;;;7.72;7.13;;;30.20;57.50;;;;;;4976151;28;20228;-78
2022/05/11 09:56:18;;;;;;;8.25;7.68;;;30.50;57.70;;;;;;4980298;28;20200;-77
2022/05/11 09:58:44;;;;;;;6.63;6.13;;;30.90;57.90;;;;;;4975664;28;20189;-79
2022/05/11 10:01:25;;;;;;;6.05;5.53;;;31.40;56.60;;;;;;4975288;28;20184;-81
2022/05/11 10:03:59;;;;;;;5.32;4.88;;;31.80;56.00;;;;;;4974860;28;20288;-81
2022/05/11 10:06:29;;;;;;;7.65;6.93;;;31.20;55.80;;;;;;4974833;28;20212;-80
2022/05/11 10:08:58;;;;;;;8.48;7.88;;;30.40;57.60;;;;;;4977106;28;20842;-80
2022/05/11 10:11:50;;;;;;;9.38;8.70;;;30.60;58.40;;;;;;4975194;28;20209;-81
2022/05/11 10:23:22;;;;;;;7.03;6.43;;;31.40;56.70;;;;;;4976434;28;20189;-81
2022/05/11 10:25:58;;;;;;;8.52;7.78;;;30.80;56.20;;;;;;4982074;28;20192;-79
2022/05/11 10:28:57;;;;;;;7.57;7.13;;;30.50;57.70;;;;;;4975447;28;20188;-79
2022/05/11 10:31:58;;;;;;;7.00;6.60;;;31.00;56.50;;;;;;4976594;28;20181;-80
2022/05/11 10:34:49;;;;;;;6.63;6.03;;;31.30;55.80;;;;;;4975938;28;20644;-80
2022/05/11 10:37:33;;;;;;;6.47;6.07;;;31.60;56.00;;;;;;4975439;28;20216;-80
2022/05/11 10:40:02;;;;;;;6.15;5.65;;;32.20;53.20;;;;;;4975243;28;20256;-78
2022/05/11 10:42:38;;;;;;;7.35;6.95;;;32.50;53.30;;;;;;4976049;28;20181;-80
2022/05/11 10:45:23;;;;;;;6.18;5.88;;;32.80;53.20;;;;;;4977154;28;20185;-80
2022/05/11 10:48:05;;;;;;;10.13;9.57;;;32.90;54.10;;;;;;4975931;28;20261;-79
2022/05/11 10:50:43;;;;;;;9.82;9.05;;;32.60;54.30;;;;;;4970782;28;20185;-78
2022/05/11 10:53:20;;;;;;;11.43;10.77;;;32.60;53.10;;;;;;4959150;29;20225;-77
2022/05/11 10:56:00;;;;;;;14.75;13.55;;;32.30;52.70;;;;;;4979085;28;20550;-78
2022/05/11 10:58:44;;;;;;;15.15;13.98;;;32.80;52.40;;;;;;4978499;28;20184;-79
2022/05/11 11:01:15;;;;;;;16.50;15.27;;;32.70;50.80;;;;;;4980021;28;20264;-80
2022/05/11 11:04:12;;;;;;;14.45;13.55;;;32.00;52.00;;;;;;4976611;28;20192;-78
2022/05/11 11:07:13;;;;;;;12.15;11.32;;;31.80;52.80;;;;;;4974928;28;20204;-84
2022/05/11 11:09:57;;;;;;;11.98;11.30;;;32.50;50.60;;;;;;4978624;28;20199;-79
2022/05/11 11:12:42;;;;;;;14.27;13.38;;;32.40;49.60;;;;;;4982232;28;20180;-79
2022/05/11 11:15:14;;;;;;;12.98;12.02;;;32.40;49.80;;;;;;4978683;28;20319;-79
2022/05/11 11:17:42;;;;;;;15.52;14.73;;;33.30;49.10;;;;;;4976041;28;20579;-79
2022/05/11 11:20:10;;;;;;;7.43;7.05;;;34.20;49.60;;;;;;4977113;28;20188;-80
2022/05/11 11:23:02;;;;;;;6.68;6.22;;;34.10;45.80;;;;;;4975326;28;20715;-80
2022/05/11 11:25:43;;;;;;;6.63;6.13;;;33.70;47.40;;;;;;4973118;28;20188;-79
2022/05/11 11:28:13;;;;;;;5.88;5.47;;;33.30;47.90;;;;;;4971655;28;20200;-79
2022/05/11 11:30:41;;;;;;;4.90;4.50;;;32.60;48.20;;;;;;4973345;28;20197;-79
2022/05/11 11:33:13;;;;;;;6.35;5.90;;;32.50;48.00;;;;;;4972037;28;20201;-80
2022/05/11 11:35:42;;;;;;;7.55;6.72;;;32.70;47.30;;;;;;4972806;28;20263;-78
2022/05/11 11:38:09;;;;;;;5.68;4.85;;;32.80;49.10;;;;;;4970018;28;20211;-78
2022/05/11 11:40:37;;;;;;;7.70;7.30;;;33.60;48.20;;;;;;4970807;28;20195;-77
2022/05/11 11:43:43;;;;;;;9.88;9.38;;;34.20;47.30;;;;;;4986630;28;20180;-78
2022/05/11 11:46:09;;;;;;;7.45;6.97;;;34.10;43.30;;;;;;4992840;28;20200;-82
2022/05/11 11:48:38;;;;;;;6.00;5.45;;;34.20;42.60;;;;;;4992725;28;20181;-79
2022/05/11 11:51:08;;;;;;;4.43;4.03;;;34.20;41.70;;;;;;4995026;28;20192;-81
2022/05/11 11:53:40;;;;;;;4.78;4.47;;;34.20;42.20;;;;;;4994444;28;20311;-79
2022/05/11 11:56:33;;;;;;;4.85;4.40;;;34.50;41.90;;;;;;4994283;28;20204;-80
2022/05/11 11:59:22;;;;;;;4.78;4.38;;;34.30;41.00;;;;;;4990600;28;20218;-79
2022/05/11 12:01:51;;;;;;;4.72;4.43;;;34.90;40.90;;;;;;4996709;28;20189;-79
2022/05/11 12:04:28;;;;;;;9.65;9.05;;;35.40;40.10;;;;;;4994497;28;20208;-78
2022/05/11 12:15:39;;;;;;;8.65;8.05;;;35.20;41.20;;;;;;4974708;28;20197;-77
2022/05/11 12:18:27;;;;;;;7.30;6.70;;;36.20;40.60;;;;;;4991362;28;20199;-78
2022/05/11 12:20:54;;;;;;;9.38;8.77;;;35.30;39.10;;;;;;4991474;28;20175;-77
2022/05/11 12:23:33;;;;;;;7.22;6.68;;;34.50;40.00;;;;;;4992575;28;20208;-76
2022/05/11 12:26:04;;;;;;;8.40;7.85;;;35.00;38.60;;;;;;4993727;28;20204;-78
2022/05/11 12:28:37;;;;;;;9.55;8.82;;;35.40;38.60;;;;;;4994042;28;20181;-79
2022/05/11 12:31:14;;;;;;;8.88;8.40;;;34.70;40.40;;;;;;4997187;28;20191;-85
2022/05/11 12:33:51;;;;;;;5.28;4.60;;;34.00;41.20;;;;;;4993793;28;20183;-77
2022/05/11 12:36:35;;;;;;;4.97;4.55;;;33.90;43.20;;;;;;4981622;28;20359;-79
2022/05/11 12:39:01;;;;;;;7.00;6.45;;;35.00;40.90;;;;;;4958765;28;20185;-77
2022/05/11 12:41:28;;;;;;;8.23;7.57;;;35.70;40.40;;;;;;4960611;28;20197;-76
2022/05/11 12:44:01;;;;;;;9.02;8.40;;;35.40;39.60;;;;;;4980241;28;20213;-78
2022/05/11 12:46:28;;;;;;;9.50;8.93;;;35.30;40.70;;;;;;4977861;28;20283;-77
2022/05/11 12:49:02;;;;;;;8.98;8.18;;;36.10;40.00;;;;;;4976566;28;20181;-78
2022/05/11 12:51:31;;;;;;;6.55;5.82;;;36.00;39.70;;;;;;4977969;28;20173;-78
2022/05/11 12:54:00;;;;;;;5.53;5.15;;;36.40;38.90;;;;;;4980614;28;20233;-79
2022/05/11 12:56:31;;;;;;;5.18;4.78;;;36.60;37.40;;;;;;4978965;28;20213;-77
2022/05/11 12:59:00;;;;;;;4.85;4.45;;;36.40;37.60;;;;;;4975668;28;20192;-79
2022/05/11 13:01:31;;;;;;;5.10;4.70;;;36.00;38.60;;;;;;4979162;28;20263;-77
2022/05/11 13:04:00;;;;;;;6.45;5.95;;;35.90;38.70;;;;;;4976843;28;20220;-78
2022/05/11 13:06:31;;;;;;;7.70;7.10;;;34.70;40.50;;;;;;4974292;28;20573;-79
2022/05/11 13:09:06;;;;;;;10.52;9.68;;;34.60;39.70;;;;;;4976464;28;20185;-79
2022/05/11 13:11:33;;;;;;;5.43;5.13;;;35.20;39.80;;;;;;4977632;28;20180;-78
2022/05/11 13:14:00;;;;;;;7.38;6.80;;;35.20;38.20;;;;;;4974921;28;20197;-77
2022/05/11 13:16:34;;;;;;;8.70;7.90;;;35.80;39.20;;;;;;4974857;28;20240;-76
2022/05/11 13:19:32;;;;;;;7.15;6.53;;;36.10;38.40;;;;;;4974670;28;20177;-77
2022/05/11 13:22:05;;;;;;;8.52;7.35;;;35.70;38.50;;;;;;4941486;28;20193;-76
2022/05/11 13:24:48;;;;;;;5.38;4.88;;;36.20;38.90;;;;;;4974633;28;20287;-77
2022/05/11 13:27:44;;;;;;;4.35;4.00;;;37.20;38.20;;;;;;4972720;28;20209;-77
2022/05/11 13:30:32;;;;;;;5.90;4.00;;;37.40;34.80;;;;;;4973106;28;20209;-77
2022/05/11 13:33:36;;;;;;;4.57;4.10;;;37.20;36.60;;;;;;4975010;28;20216;-79
2022/05/11 13:36:19;;;;;;;4.38;4.07;;;36.60;36.60;;;;;;4974365;28;20216;-77
2022/05/11 13:38:56;;;;;;;5.95;4.65;;;36.70;36.40;;;;;;4974113;28;20181;-76
2022/05/11 13:41:37;;;;;;;5.63;5.22;;;37.30;35.30;;;;;;4973625;28;20712;-76
2022/05/11 13:44:30;;;;;;;5.47;4.97;;;36.60;35.10;;;;;;4978558;28;20360;-77
2022/05/11 13:49:47;;;;;;;6.63;6.22;;;37.30;35.60;;;;;;4976838;28;20181;-82
2022/05/11 13:52:35;;;;;;;9.88;7.35;;;37.50;34.20;;;;;;4977813;28;20185;-82
2022/05/11 13:55:03;;;;;;;5.35;5.05;;;37.50;34.70;;;;;;4976330;28;20193;-80
2022/05/11 13:57:36;;;;;;;7.70;7.10;;;38.00;35.80;;;;;;4975758;28;20251;-79
2022/05/11 14:00:21;;;;;;;7.70;6.97;;;37.40;33.60;;;;;;4976624;28;20548;-78
2022/05/11 14:03:00;;;;;;;6.10;5.70;;;36.00;33.50;;;;;;4973757;28;20271;-76
2022/05/11 14:05:28;;;;;;;6.25;5.95;;;35.70;35.20;;;;;;4981719;28;20184;-78
2022/05/11 14:07:53;;;;;;;4.82;4.25;;;35.40;36.20;;;;;;4994166;28;20196;-77
2022/05/11 14:10:23;;;;;;;5.15;4.85;;;35.20;37.20;;;;;;4997779;28;20258;-77
2022/05/11 14:12:49;;;;;;;4.38;4.18;;;35.90;36.40;;;;;;4994357;28;20198;-77
2022/05/11 14:15:15;;;;;;;4.93;4.50;;;36.40;35.60;;;;;;5000373;28;20192;-78
2022/05/11 14:17:51;;;;;;;8.00;7.00;;;37.10;35.90;;;;;;5002150;28;20212;-80
2022/05/11 14:20:27;;;;;;;8.98;8.10;;;37.00;33.60;;;;;;4999226;28;20180;-77
2022/05/11 14:22:54;;;;;;;7.05;6.45;;;37.20;33.90;;;;;;4997883;28;20581;-77
2022/05/11 14:25:20;;;;;;;6.85;6.38;;;38.00;33.60;;;;;;5000182;28;20172;-76
2022/05/11 14:27:46;;;;;;;7.38;5.07;;;37.60;30.00;;;;;;4993992;28;20227;-78
2022/05/11 14:30:14;;;;;;;6.28;5.78;;;36.50;31.70;;;;;;4992367;28;20185;-77
2022/05/11 14:32:45;;;;;;;8.82;8.43;;;36.50;33.10;;;;;;4976048;28;20185;-79
2022/05/11 14:35:19;;;;;;;6.13;4.30;;;36.30;32.80;;;;;;4975103;28;20268;-78
2022/05/11 14:37:45;;;;;;;7.95;7.43;;;36.60;31.80;;;;;;4974866;28;20275;-79
2022/05/11 14:40:14;;;;;;;4.70;4.13;;;37.40;33.40;;;;;;4985583;28;20185;-77
2022/05/11 14:42:40;;;;;;;8.20;7.60;;;37.10;31.60;;;;;;4985155;28;20216;-77
2022/05/11 14:45:07;;;;;;;11.32;10.43;;;37.30;33.10;;;;;;4973577;28;20177;-78
2022/05/11 14:47:34;;;;;;;8.25;7.38;;;37.90;32.30;;;;;;4974166;28;20223;-82
2022/05/11 14:50:01;;;;;;;6.75;6.22;;;37.90;30.90;;;;;;4974725;28;20181;-80
2022/05/11 14:52:27;;;;;;;13.63;12.57;;;37.30;32.00;;;;;;4975301;28;20188;-83
2022/05/11 14:54:56;;;;;;;15.13;14.30;;;37.20;30.00;;;;;;4976968;28;20185;-80
2022/05/11 15:02:53;;;;;;;6.40;6.05;;;37.20;31.20;;;;;;4978897;28;20228;-80
2022/05/11 15:05:19;;;;;;;5.85;5.55;;;36.80;30.90;;;;;;4983979;28;20641;-80
2022/05/11 15:07:46;;;;;;;8.02;7.22;;;36.80;32.50;;;;;;4975675;28;20216;-79
2022/05/11 15:10:13;;;;;;;7.32;6.80;;;37.20;31.40;;;;;;4976794;28;20185;-79
2022/05/11 15:15:25;;;;;;;8.82;7.60;;;35.70;31.90;;;;;;4975722;28;20437;-79
2022/05/11 15:17:53;;;;;;;6.35;5.95;;;35.40;32.90;;;;;;4998241;23;20248;-76
2022/05/11 15:20:23;;;;;;;5.88;5.40;;;36.20;31.60;;;;;;4979955;28;20185;-78
2022/05/11 15:22:49;;;;;;;6.45;5.93;;;36.40;30.20;;;;;;4980906;28;20205;-78
2022/05/11 15:25:16;;;;;;;12.82;12.13;;;37.10;30.80;;;;;;4984171;28;20180;-80
2022/05/11 15:27:44;;;;;;;6.95;6.20;;;37.20;29.80;;;;;;4975601;28;20212;-79
2022/05/11 15:30:12;;;;;;;5.78;5.03;;;35.90;30.70;;;;;;4974653;28;20173;-79
2022/05/11 15:32:38;;;;;;;8.18;7.03;;;35.50;31.70;;;;;;4976845;28;20181;-80
2022/05/11 15:35:05;;;;;;;6.15;5.75;;;35.90;32.20;;;;;;4977271;28;20201;-79
2022/05/11 15:37:33;;;;;;;4.60;4.20;;;36.10;32.00;;;;;;4975412;28;20205;-76
2022/05/11 15:39:59;;;;;;;4.80;4.47;;;36.00;30.70;;;;;;4975773;28;20220;-79
2022/05/11 15:42:26;;;;;;;5.43;4.80;;;36.20;31.50;;;;;;4977446;28;20268;-79
2022/05/11 15:44:56;;;;;;;5.63;5.32;;;36.00;31.10;;;;;;4977626;28;20291;-77
2022/05/11 15:47:24;;;;;;;7.18;6.68;;;36.40;32.10;;;;;;4975818;28;20219;-77
2022/05/11 15:49:49;;;;;;;6.47;5.65;;;36.70;30.90;;;;;;4975522;28;20571;-79
2022/05/11 15:52:20;;;;;;;8.40;7.85;;;36.40;32.00;;;;;;4972736;28;20196;-79
2022/05/11 15:54:47;;;;;;;10.35;9.75;;;36.30;32.40;;;;;;4974542;28;20204;-78
2022/05/11 15:57:14;;;;;;;12.45;6.78;;;36.20;33.00;;;;;;4973450;28;20197;-81
2022/05/11 15:59:40;;;;;;;13.13;12.40;;;35.90;33.00;;;;;;4973827;28;20195;-78
2022/05/11 16:02:07;;;;;;;14.10;13.02;;;35.70;33.20;;;;;;4972457;28;20271;-79
2022/05/11 16:04:38;;;;;;;20.48;19.20;;;35.50;33.80;;;;;;4945964;28;20227;-78
2022/05/11 16:07:05;;;;;;;17.70;16.80;;;35.20;34.00;;;;;;4933122;29;20576;-80
2022/05/11 16:09:31;;;;;;;13.75;12.82;;;35.30;34.60;;;;;;4948094;28;20186;-78
2022/05/11 16:11:57;;;;;;;18.63;17.27;;;35.20;33.20;;;;;;4945820;28;20242;-77
2022/05/11 16:14:24;;;;;;;22.70;21.27;;;35.50;33.30;;;;;;4936946;29;20174;-79
2022/05/11 16:16:50;;;;;;;14.70;13.70;;;35.20;33.80;;;;;;4937853;29;20257;-76
2022/05/11 16:22:01;;;;;;;14.63;13.82;;;35.80;33.60;;;;;;4959162;29;20189;-76
2022/05/11 16:24:28;;;;;;;9.20;8.68;;;36.10;33.10;;;;;;4957217;28;20252;-76
2022/05/11 16:26:55;;;;;;;21.48;19.73;;;35.10;32.80;;;;;;4955251;28;20209;-78
2022/05/11 16:29:22;;;;;;;13.82;13.13;;;35.00;34.20;;;;;;4958232;28;20236;-77
2022/05/11 16:31:49;;;;;;;16.40;15.35;;;34.60;34.00;;;;;;4957673;28;20213;-77
2022/05/11 16:34:17;;;;;;;12.73;11.82;;;34.40;34.30;;;;;;4957923;28;20272;-79
2022/05/11 16:36:42;;;;;;;9.95;9.25;;;34.00;34.80;;;;;;4958449;28;20205;-78
2022/05/11 16:39:08;;;;;;;8.98;8.43;;;34.00;35.10;;;;;;4944056;28;20271;-78
2022/05/11 16:41:35;;;;;;;6.38;5.85;;;33.40;35.30;;;;;;4937511;29;20277;-82
2022/05/11 16:44:01;;;;;;;6.97;6.47;;;33.50;35.60;;;;;;4936867;29;20309;-79
2022/05/11 16:46:27;;;;;;;6.60;4.55;;;33.40;34.30;;;;;;4936774;29;20214;-78